Time;durP1;ratioP1;P1;durP2;ratioP2;P2;SDS_P1;SDS_P2;PMS_P1;PMS_P2;Temp;Humidity;BMP_temperature;BMP_pressure;BME280_temperature;BME280_humidity;BME280_pressure;Samples;Min_cycle;Max_cycle;Signal;HPM_P1;HPM_P2
2022/08/21 00:02:20;;;;;;;16.15;8.70;;;14.90;99.90;;;;;;5046777;28;20042;-88
2022/08/21 00:04:47;;;;;;;20.30;8.68;;;14.90;99.90;;;;;;5035290;28;20936;-86
2022/08/21 00:07:13;;;;;;;17.55;8.40;;;14.90;99.90;;;;;;5035296;28;20061;-86
2022/08/21 00:09:39;;;;;;;15.25;7.90;;;14.80;99.90;;;;;;5049238;28;20037;-87
2022/08/21 00:12:05;;;;;;;20.23;8.85;;;14.70;99.90;;;;;;5036837;28;20049;-86
2022/08/21 00:14:31;;;;;;;18.33;8.38;;;14.80;99.90;;;;;;5048127;28;20060;-86
2022/08/21 00:16:57;;;;;;;14.32;8.05;;;14.80;99.90;;;;;;5051635;28;20139;-87
2022/08/21 00:19:24;;;;;;;20.98;8.75;;;14.70;99.90;;;;;;5039581;28;20420;-86
2022/08/21 00:21:52;;;;;;;15.88;8.88;;;14.70;99.90;;;;;;5043105;28;20041;-86
2022/08/21 00:24:21;;;;;;;15.25;8.35;;;14.70;99.90;;;;;;5048134;28;20051;-86
2022/08/21 00:26:50;;;;;;;19.27;9.00;;;14.70;99.90;;;;;;5051637;28;20036;-87
2022/08/21 00:29:17;;;;;;;15.02;9.10;;;14.60;99.90;;;;;;5047228;28;20052;-86
2022/08/21 00:31:43;;;;;;;15.95;8.27;;;14.70;99.90;;;;;;5047078;28;20062;-86
2022/08/21 00:34:11;;;;;;;18.10;8.73;;;14.60;99.90;;;;;;5045120;28;20139;-87
2022/08/21 00:36:37;;;;;;;13.82;8.60;;;14.60;99.90;;;;;;5044250;28;20047;-86
2022/08/21 00:39:05;;;;;;;16.35;8.73;;;14.60;99.90;;;;;;5046055;28;20076;-87
2022/08/21 00:41:31;;;;;;;16.75;8.43;;;14.60;99.90;;;;;;5046486;28;20521;-87
2022/08/21 00:43:57;;;;;;;16.17;8.70;;;14.60;99.90;;;;;;5040120;28;20064;-87
2022/08/21 00:46:23;;;;;;;15.18;7.85;;;14.60;99.90;;;;;;5046105;28;20124;-87
2022/08/21 00:48:48;;;;;;;15.18;8.25;;;14.50;99.90;;;;;;5038609;28;20051;-86
2022/08/21 00:51:25;;;;;;;20.13;8.75;;;14.50;99.90;;;;;;5041687;28;20042;-86
2022/08/21 00:53:55;;;;;;;14.38;8.88;;;14.50;99.90;;;;;;5049395;28;20048;-86
2022/08/21 00:56:22;;;;;;;15.80;8.67;;;14.40;99.90;;;;;;5049924;28;21251;-86
2022/08/21 00:58:48;;;;;;;19.90;8.63;;;14.40;99.90;;;;;;5029918;28;20041;-86
2022/08/21 01:01:14;;;;;;;17.27;8.77;;;14.40;99.90;;;;;;5034353;28;20041;-86
2022/08/21 01:03:40;;;;;;;16.33;8.43;;;14.30;99.90;;;;;;5034850;28;20491;-86
2022/08/21 01:06:07;;;;;;;16.75;8.82;;;14.40;99.90;;;;;;5038293;28;20510;-86
2022/08/21 01:08:33;;;;;;;16.38;9.00;;;14.30;99.90;;;;;;5032845;28;20529;-86
2022/08/21 01:11:00;;;;;;;15.13;8.38;;;14.30;99.90;;;;;;5046096;28;20494;-86
2022/08/21 01:13:28;;;;;;;14.77;8.80;;;14.20;99.90;;;;;;5052193;28;20501;-88
2022/08/21 01:15:59;;;;;;;12.73;8.20;;;14.10;99.90;;;;;;5035888;28;20056;-88
2022/08/21 01:18:26;;;;;;;13.27;9.17;;;14.20;99.90;;;;;;5040904;28;20045;-89
2022/08/21 01:21:04;;;;;;;15.35;8.93;;;14.10;99.90;;;;;;5041009;28;20295;-86
2022/08/21 01:23:30;;;;;;;17.27;8.68;;;14.10;99.90;;;;;;5050939;28;20045;-86
2022/08/21 01:25:56;;;;;;;13.38;8.38;;;14.10;99.90;;;;;;5035487;28;20053;-86
2022/08/21 01:28:22;;;;;;;17.85;8.77;;;14.00;99.90;;;;;;5039320;28;20044;-88
2022/08/21 01:30:50;;;;;;;18.42;8.45;;;14.00;99.90;;;;;;5035901;28;20041;-87
2022/08/21 01:33:19;;;;;;;14.95;8.98;;;14.00;99.90;;;;;;5044447;28;20040;-87
2022/08/21 01:35:45;;;;;;;16.80;9.32;;;14.00;99.90;;;;;;5046350;28;20535;-86
2022/08/21 01:38:10;;;;;;;13.60;8.27;;;14.00;99.90;;;;;;5038105;28;20048;-87
2022/08/21 01:40:36;;;;;;;13.50;8.43;;;13.90;99.90;;;;;;5044769;28;20460;-86
2022/08/21 01:43:02;;;;;;;20.08;9.02;;;14.00;99.90;;;;;;5050408;28;20043;-87
2022/08/21 01:45:28;;;;;;;15.55;8.38;;;13.90;99.90;;;;;;5040768;28;20483;-88
2022/08/21 01:47:54;;;;;;;15.10;8.68;;;13.90;99.90;;;;;;5033426;28;20064;-88
2022/08/21 01:50:20;;;;;;;12.48;8.40;;;13.90;99.90;;;;;;5039654;28;20538;-87
2022/08/21 01:52:47;;;;;;;13.32;8.13;;;13.80;99.90;;;;;;5046634;28;20424;-87
2022/08/21 01:55:13;;;;;;;13.32;8.10;;;13.80;99.90;;;;;;5043472;28;20041;-87
2022/08/21 01:57:39;;;;;;;16.05;8.55;;;13.80;99.90;;;;;;5033289;28;20052;-87
2022/08/21 02:00:08;;;;;;;15.60;9.25;;;13.70;99.90;;;;;;5037370;28;20120;-87
2022/08/21 02:02:34;;;;;;;13.13;8.63;;;13.80;99.90;;;;;;5050042;28;20061;-87
2022/08/21 02:05:00;;;;;;;17.23;8.45;;;13.80;99.90;;;;;;5047717;28;20501;-87
2022/08/21 02:07:25;;;;;;;15.40;8.30;;;13.70;99.90;;;;;;5032783;28;20057;-87
2022/08/21 02:09:51;;;;;;;14.70;8.52;;;13.80;99.90;;;;;;5032810;28;20045;-87
2022/08/21 02:12:17;;;;;;;18.55;9.00;;;13.70;99.90;;;;;;5031938;28;20048;-87
2022/08/21 02:14:42;;;;;;;14.82;8.20;;;13.80;99.90;;;;;;5031634;28;20091;-87
2022/08/21 02:17:08;;;;;;;13.27;8.00;;;13.70;99.90;;;;;;5046386;28;20044;-87
2022/08/21 02:19:34;;;;;;;15.63;8.27;;;13.80;99.90;;;;;;5031455;28;20045;-88
2022/08/21 02:21:59;;;;;;;14.00;7.88;;;13.70;99.90;;;;;;5038336;28;20037;-87
2022/08/21 02:24:25;;;;;;;23.20;8.63;;;13.70;99.90;;;;;;5050601;28;20076;-86
2022/08/21 02:26:50;;;;;;;15.15;8.20;;;13.60;99.90;;;;;;5041892;28;20431;-87
2022/08/21 02:29:16;;;;;;;16.17;8.07;;;13.70;99.90;;;;;;5048331;28;20049;-86
2022/08/21 02:31:42;;;;;;;15.40;8.63;;;13.70;99.90;;;;;;5044128;28;20044;-88
2022/08/21 02:34:08;;;;;;;16.35;8.00;;;13.50;99.90;;;;;;5049179;28;20101;-86
2022/08/21 02:36:34;;;;;;;15.65;8.40;;;13.60;99.90;;;;;;5037839;28;20049;-87
2022/08/21 02:39:00;;;;;;;16.00;8.20;;;13.50;99.90;;;;;;5031274;28;20042;-87
2022/08/21 02:41:25;;;;;;;12.25;7.85;;;13.50;99.90;;;;;;5033247;28;20403;-87
2022/08/21 02:43:51;;;;;;;14.00;8.07;;;13.50;99.90;;;;;;5030628;28;20128;-87
2022/08/21 02:46:19;;;;;;;15.23;8.30;;;13.50;99.90;;;;;;5039403;28;20431;-87
2022/08/21 02:48:46;;;;;;;17.33;8.45;;;13.40;99.90;;;;;;5046505;28;20187;-87
2022/08/21 02:51:19;;;;;;;11.57;7.50;;;13.50;99.90;;;;;;5041722;28;20037;-88
2022/08/21 02:53:46;;;;;;;13.45;7.15;;;13.40;99.90;;;;;;5035098;28;20033;-87
2022/08/21 02:56:14;;;;;;;15.43;8.20;;;13.50;99.90;;;;;;5037111;28;20425;-87
2022/08/21 02:58:47;;;;;;;14.45;7.93;;;13.50;99.90;;;;;;5049727;28;20486;-87
2022/08/21 03:01:13;;;;;;;11.50;7.65;;;13.40;99.90;;;;;;5042779;28;20045;-87
2022/08/21 03:03:41;;;;;;;13.98;8.00;;;13.50;99.90;;;;;;5037736;28;20512;-87
2022/08/21 03:06:10;;;;;;;15.02;8.00;;;13.50;99.90;;;;;;5040884;28;20421;-87
2022/08/21 03:08:37;;;;;;;14.27;8.20;;;13.50;99.90;;;;;;5047970;28;20067;-87
2022/08/21 03:11:03;;;;;;;18.63;7.97;;;13.50;99.90;;;;;;5018472;28;20052;-87
2022/08/21 03:13:29;;;;;;;16.25;8.10;;;13.40;99.90;;;;;;5047478;28;20057;-87
2022/08/21 03:15:55;;;;;;;14.52;9.10;;;13.40;99.90;;;;;;5032706;28;20133;-87
2022/08/21 03:18:21;;;;;;;15.00;9.10;;;13.40;99.90;;;;;;5049564;28;20127;-87
2022/08/21 03:20:47;;;;;;;16.55;9.40;;;13.40;99.90;;;;;;5037222;28;20104;-87
2022/08/21 03:23:15;;;;;;;16.27;10.55;;;13.30;99.90;;;;;;5031552;28;20148;-89
2022/08/21 03:25:41;;;;;;;18.73;10.30;;;13.40;99.90;;;;;;5041574;28;20064;-87
2022/08/21 03:28:10;;;;;;;16.08;10.50;;;13.30;99.90;;;;;;5047835;28;20045;-87
2022/08/21 03:30:36;;;;;;;16.33;11.15;;;13.30;99.90;;;;;;5047481;28;20490;-87
2022/08/21 03:33:02;;;;;;;12.43;8.18;;;13.40;99.90;;;;;;5039031;28;20041;-87
2022/08/21 03:35:28;;;;;;;14.35;9.63;;;13.40;99.90;;;;;;5036515;28;20041;-87
2022/08/21 03:37:54;;;;;;;21.05;11.50;;;13.30;99.90;;;;;;5046193;28;20116;-87
2022/08/21 03:40:22;;;;;;;18.52;12.07;;;13.30;99.90;;;;;;5047564;28;20132;-87
2022/08/21 03:42:48;;;;;;;19.55;12.63;;;13.30;99.90;;;;;;5031924;28;20495;-87
2022/08/21 03:45:16;;;;;;;17.50;12.60;;;13.40;99.90;;;;;;5031418;28;20049;-87
2022/08/21 03:48:01;;;;;;;18.15;13.48;;;13.30;99.90;;;;;;5042972;28;20037;-87
2022/08/21 03:50:30;;;;;;;17.95;12.25;;;13.30;99.90;;;;;;5037068;28;20053;-87
2022/08/21 03:52:57;;;;;;;18.92;12.13;;;13.30;99.90;;;;;;5031267;28;20048;-87
2022/08/21 03:55:23;;;;;;;19.15;13.27;;;13.40;99.90;;;;;;5047820;28;20045;-87
2022/08/21 03:57:49;;;;;;;21.60;12.38;;;13.40;99.90;;;;;;5047503;28;20072;-87
2022/08/21 04:00:16;;;;;;;15.52;10.85;;;13.40;99.90;;;;;;5048688;28;20486;-87
2022/08/21 04:02:43;;;;;;;20.25;12.40;;;13.40;99.90;;;;;;5046854;28;20437;-87
2022/08/21 04:05:10;;;;;;;15.57;11.75;;;13.40;99.90;;;;;;5049523;28;20410;-87
2022/08/21 04:07:35;;;;;;;17.08;12.77;;;13.40;99.90;;;;;;5039463;28;20052;-87
2022/08/21 04:10:02;;;;;;;17.60;12.38;;;13.40;99.90;;;;;;5035112;28;20053;-87
2022/08/21 04:12:28;;;;;;;19.67;12.30;;;13.40;99.90;;;;;;5036692;28;20120;-87
2022/08/21 04:14:54;;;;;;;22.65;12.38;;;13.30;99.90;;;;;;5036251;28;20175;-86
2022/08/21 04:17:19;;;;;;;20.88;12.90;;;13.30;99.90;;;;;;5035320;28;20037;-87
2022/08/21 04:19:45;;;;;;;22.23;12.30;;;13.40;99.90;;;;;;5034715;28;20446;-87
2022/08/21 04:22:11;;;;;;;22.48;12.02;;;13.30;99.90;;;;;;5042293;28;20041;-88
2022/08/21 04:24:36;;;;;;;16.38;11.93;;;13.30;99.90;;;;;;5052641;28;20047;-87
2022/08/21 04:27:02;;;;;;;16.88;10.45;;;13.20;99.90;;;;;;5045832;28;20063;-86
2022/08/21 04:29:28;;;;;;;14.05;9.95;;;13.20;99.90;;;;;;5034957;28;20045;-87
2022/08/21 04:31:54;;;;;;;16.45;11.20;;;13.20;99.90;;;;;;5040013;28;20056;-87
2022/08/21 04:34:20;;;;;;;18.55;11.65;;;13.30;99.90;;;;;;5040906;28;20040;-87
2022/08/21 04:36:45;;;;;;;16.27;10.98;;;13.30;99.90;;;;;;5047931;28;20045;-86
2022/08/21 04:39:11;;;;;;;19.42;11.45;;;13.30;99.90;;;;;;5036908;28;20084;-86
2022/08/21 04:41:37;;;;;;;17.90;10.85;;;13.20;99.90;;;;;;5038626;28;20049;-87
2022/08/21 04:44:04;;;;;;;15.57;10.52;;;13.40;99.90;;;;;;5033644;28;20067;-87
2022/08/21 04:46:29;;;;;;;14.45;10.75;;;13.20;99.90;;;;;;5051088;28;20124;-87
2022/08/21 04:48:56;;;;;;;16.15;10.32;;;13.20;99.90;;;;;;5040790;28;20128;-87
2022/08/21 04:51:29;;;;;;;17.33;10.55;;;13.20;99.90;;;;;;5037813;28;20041;-87
2022/08/21 04:54:02;;;;;;;19.13;10.77;;;13.30;99.90;;;;;;5045317;28;20098;-87
2022/08/21 04:56:45;;;;;;;16.70;10.43;;;13.20;99.90;;;;;;5050952;28;20124;-87
2022/08/21 04:59:17;;;;;;;18.65;9.82;;;13.30;99.90;;;;;;5047158;28;20049;-87
2022/08/21 05:01:44;;;;;;;16.70;9.05;;;13.30;99.90;;;;;;5031390;28;20124;-86
2022/08/21 05:04:13;;;;;;;12.70;9.32;;;13.40;99.90;;;;;;5045240;28;20098;-87
2022/08/21 05:06:43;;;;;;;13.15;8.43;;;13.40;99.90;;;;;;5037835;28;20064;-88
2022/08/21 05:09:09;;;;;;;14.30;8.13;;;13.40;99.90;;;;;;5031159;28;20052;-87
2022/08/21 05:11:36;;;;;;;13.82;9.00;;;13.40;99.90;;;;;;5050342;28;20048;-86
2022/08/21 05:14:03;;;;;;;13.70;8.75;;;13.50;99.90;;;;;;5041939;28;20041;-88
2022/08/21 05:16:29;;;;;;;13.43;8.10;;;13.50;99.90;;;;;;5040754;28;20040;-87
2022/08/21 05:18:54;;;;;;;16.15;8.10;;;13.50;99.90;;;;;;5034226;28;20045;-87
2022/08/21 05:21:20;;;;;;;12.80;7.78;;;13.60;99.90;;;;;;5034124;28;20514;-87
2022/08/21 05:23:46;;;;;;;14.07;8.15;;;13.70;99.90;;;;;;5050560;28;20053;-88
2022/08/21 05:26:12;;;;;;;14.00;7.63;;;13.70;99.90;;;;;;5051728;28;20567;-87
2022/08/21 05:28:37;;;;;;;11.82;6.18;;;13.60;99.90;;;;;;5040176;28;20052;-88
2022/08/21 05:31:03;;;;;;;14.00;6.97;;;13.80;99.90;;;;;;5041387;28;20037;-86
2022/08/21 05:33:29;;;;;;;9.65;6.60;;;13.80;99.90;;;;;;5027075;28;20399;-85
2022/08/21 05:35:55;;;;;;;13.80;6.90;;;13.80;99.90;;;;;;5037922;28;20052;-86
2022/08/21 05:38:22;;;;;;;11.35;6.40;;;14.00;99.90;;;;;;5042374;28;20037;-86
2022/08/21 05:40:48;;;;;;;14.00;6.53;;;14.10;99.90;;;;;;5037434;28;20048;-86
2022/08/21 05:43:14;;;;;;;9.30;5.72;;;14.20;99.90;;;;;;5037146;28;20060;-86
2022/08/21 05:45:41;;;;;;;11.73;6.68;;;14.20;99.90;;;;;;5045796;28;20052;-89
2022/08/21 05:48:08;;;;;;;14.32;6.55;;;14.20;99.90;;;;;;5040509;28;20061;-86
2022/08/21 05:50:35;;;;;;;11.00;6.80;;;14.30;99.90;;;;;;5038784;28;20045;-88
2022/08/21 05:53:01;;;;;;;13.55;5.72;;;14.40;99.90;;;;;;5040793;28;20084;-87
2022/08/21 05:55:26;;;;;;;14.75;6.07;;;14.50;99.90;;;;;;5033404;28;20084;-89
2022/08/21 05:57:52;;;;;;;13.57;5.70;;;14.60;99.90;;;;;;5038685;28;20049;-87
2022/08/21 06:00:18;;;;;;;12.13;5.03;;;14.70;99.90;;;;;;5041617;28;20112;-87
2022/08/21 06:02:43;;;;;;;11.73;5.60;;;14.80;99.90;;;;;;5036940;28;20490;-88
2022/08/21 06:05:09;;;;;;;9.57;5.25;;;14.90;99.90;;;;;;5048033;28;20470;-86
2022/08/21 06:07:35;;;;;;;11.02;5.20;;;15.00;99.90;;;;;;5050520;28;20406;-87
2022/08/21 06:10:01;;;;;;;15.07;5.53;;;15.20;99.90;;;;;;5036463;28;20059;-83
2022/08/21 06:12:26;;;;;;;11.25;5.00;;;15.30;99.90;;;;;;5048945;28;20048;-87
2022/08/21 06:14:52;;;;;;;13.25;4.97;;;15.40;99.90;;;;;;5039939;28;20063;-85
2022/08/21 06:17:18;;;;;;;7.20;4.10;;;15.50;99.90;;;;;;5042772;28;20071;-85
2022/08/21 06:19:44;;;;;;;12.13;4.82;;;15.60;99.90;;;;;;5038259;28;20426;-83
2022/08/21 06:22:09;;;;;;;12.90;4.65;;;15.70;99.90;;;;;;5040227;28;20046;-84
2022/08/21 06:24:35;;;;;;;12.95;4.55;;;15.80;99.90;;;;;;5036966;28;20048;-86
2022/08/21 06:27:07;;;;;;;17.58;5.10;;;15.90;99.90;;;;;;5038148;28;20041;-84
2022/08/21 06:29:34;;;;;;;11.48;4.10;;;16.00;99.90;;;;;;5020028;28;20378;-85
2022/08/21 06:32:01;;;;;;;14.93;4.20;;;16.10;99.90;;;;;;5046643;28;20041;-86
2022/08/21 06:34:27;;;;;;;13.35;4.50;;;16.20;99.90;;;;;;5044524;28;20041;-87
2022/08/21 06:36:52;;;;;;;8.55;4.68;;;16.30;99.90;;;;;;5033260;28;20060;-88
2022/08/21 06:39:18;;;;;;;11.63;4.38;;;16.40;99.90;;;;;;5040612;28;20049;-86
2022/08/21 06:41:43;;;;;;;12.80;4.88;;;16.50;99.90;;;;;;5046172;28;20060;-84
2022/08/21 06:44:09;;;;;;;10.60;4.28;;;16.50;99.90;;;;;;5048993;28;20098;-86
2022/08/21 06:46:35;;;;;;;7.18;4.05;;;16.60;99.90;;;;;;5032915;28;20041;-85
2022/08/21 06:49:01;;;;;;;10.75;4.28;;;16.70;99.90;;;;;;5037175;28;20087;-87
2022/08/21 06:51:27;;;;;;;13.20;4.60;;;16.80;99.90;;;;;;5046528;28;20045;-86
2022/08/21 06:53:53;;;;;;;17.00;5.13;;;16.90;99.90;;;;;;5016612;28;20057;-85
2022/08/21 06:56:19;;;;;;;10.65;4.35;;;17.00;99.90;;;;;;5044851;28;20132;-84
2022/08/21 06:58:44;;;;;;;13.43;4.20;;;17.00;99.90;;;;;;5040557;28;20053;-84
2022/08/21 07:01:10;;;;;;;14.10;4.25;;;17.20;99.90;;;;;;5032427;28;20033;-84
2022/08/21 07:03:39;;;;;;;12.05;4.00;;;17.30;99.90;;;;;;5040145;28;20041;-85
2022/08/21 07:06:07;;;;;;;11.88;3.97;;;17.40;99.90;;;;;;5034604;28;20045;-86
2022/08/21 07:08:33;;;;;;;9.10;4.07;;;17.50;99.90;;;;;;5022689;28;20061;-86
2022/08/21 07:11:02;;;;;;;13.80;4.00;;;17.60;99.90;;;;;;5050040;28;20045;-86
2022/08/21 07:13:28;;;;;;;11.65;4.10;;;17.70;99.90;;;;;;5027667;28;20049;-85
2022/08/21 07:15:53;;;;;;;11.95;3.95;;;17.80;99.90;;;;;;5046311;28;20533;-86
2022/08/21 07:18:19;;;;;;;9.45;3.58;;;17.90;99.90;;;;;;5034441;28;20469;-85
2022/08/21 07:20:46;;;;;;;9.95;3.70;;;18.00;99.90;;;;;;5037358;28;20486;-84
2022/08/21 07:23:28;;;;;;;11.10;3.45;;;18.20;99.90;;;;;;5047663;28;20045;-86
2022/08/21 07:25:54;;;;;;;12.07;3.17;;;18.30;99.90;;;;;;5021843;28;20114;-83
2022/08/21 07:28:20;;;;;;;10.10;2.90;;;18.40;99.90;;;;;;5041283;28;20442;-84
2022/08/21 07:30:50;;;;;;;10.07;2.67;;;18.60;99.90;;;;;;5045186;28;20684;-83
2022/08/21 07:33:16;;;;;;;10.27;3.25;;;18.60;99.90;;;;;;5050956;28;20371;-84
2022/08/21 07:35:41;;;;;;;9.77;3.28;;;18.80;99.90;;;;;;5026531;28;20060;-84
2022/08/21 07:38:07;;;;;;;9.65;3.20;;;18.90;99.90;;;;;;5032241;28;20410;-83
2022/08/21 07:40:33;;;;;;;13.20;2.97;;;19.00;99.90;;;;;;5032600;28;20053;-85
2022/08/21 07:42:59;;;;;;;10.38;2.83;;;19.00;99.90;;;;;;5049204;28;20052;-84
2022/08/21 07:45:24;;;;;;;14.07;3.65;;;19.20;99.90;;;;;;5055856;28;20080;-86
2022/08/21 07:47:50;;;;;;;11.63;3.40;;;19.20;99.90;;;;;;5056024;28;20041;-85
2022/08/21 07:50:16;;;;;;;12.82;3.90;;;19.40;99.90;;;;;;5058490;28;20048;-87
2022/08/21 07:52:43;;;;;;;11.65;4.35;;;19.50;99.90;;;;;;5055168;28;20053;-83
2022/08/21 07:55:12;;;;;;;10.20;3.45;;;19.60;99.90;;;;;;5053362;28;20101;-83
2022/08/21 07:57:38;;;;;;;13.13;3.22;;;19.60;99.90;;;;;;5048026;28;20076;-84
2022/08/21 08:00:08;;;;;;;12.60;3.40;;;19.60;99.90;;;;;;5046354;28;20063;-84
2022/08/21 08:02:33;;;;;;;16.17;4.35;;;19.70;99.90;;;;;;5054593;28;20076;-86
2022/08/21 08:05:04;;;;;;;11.10;3.70;;;19.90;99.90;;;;;;5054310;28;20096;-87
2022/08/21 08:07:29;;;;;;;9.25;3.33;;;20.00;99.90;;;;;;5049805;28;20111;-85
2022/08/21 08:09:55;;;;;;;13.30;3.53;;;20.10;99.90;;;;;;5047336;28;20057;-86
2022/08/21 08:12:22;;;;;;;11.52;3.47;;;20.10;99.90;;;;;;5043597;28;20473;-86
2022/08/21 08:14:48;;;;;;;15.18;4.03;;;20.20;99.90;;;;;;5044411;28;20053;-86
2022/08/21 08:17:14;;;;;;;12.50;2.78;;;20.40;99.90;;;;;;5041391;28;20530;-86
2022/08/21 08:19:39;;;;;;;8.85;3.40;;;20.50;99.90;;;;;;5049485;28;20118;-86
2022/08/21 08:22:18;;;;;;;11.38;3.22;;;20.70;99.90;;;;;;5053306;28;20443;-86
2022/08/21 08:24:45;;;;;;;8.68;2.80;;;20.90;99.90;;;;;;5047930;28;20061;-85
2022/08/21 08:27:10;;;;;;;11.57;3.65;;;21.10;99.90;;;;;;5039474;28;20399;-88
2022/08/21 08:29:36;;;;;;;12.75;3.10;;;21.20;99.90;;;;;;5037103;28;20045;-87
2022/08/21 08:32:03;;;;;;;8.48;3.05;;;21.50;99.90;;;;;;5035052;28;20056;-92
2022/08/21 08:34:30;;;;;;;12.93;3.55;;;21.90;99.90;;;;;;5036684;28;20110;-91
2022/08/21 08:36:57;;;;;;;13.77;3.20;;;22.70;99.90;;;;;;5043997;28;20050;-94
2022/08/21 08:39:23;;;;;;;15.18;3.60;;;23.30;99.90;;;;;;5041749;28;20172;-86
2022/08/21 08:41:51;;;;;;;7.82;2.47;;;23.40;99.90;;;;;;5047575;28;20147;-88
2022/08/21 08:44:18;;;;;;;7.07;2.60;;;23.40;99.90;;;;;;5050508;28;20423;-85
2022/08/21 08:46:48;;;;;;;8.77;2.80;;;24.00;99.90;;;;;;5043653;28;20449;-87
2022/08/21 08:49:24;;;;;;;7.95;2.45;;;24.90;99.90;;;;;;5043079;28;20064;-89
2022/08/21 08:52:03;;;;;;;6.07;2.15;;;25.90;97.90;;;;;;5037944;28;20130;-83
2022/08/21 08:54:34;;;;;;;10.52;2.90;;;26.40;86.40;;;;;;5035855;28;20041;-87
2022/08/21 08:57:05;;;;;;;11.27;2.20;;;26.80;78.70;;;;;;5040413;28;20053;-88
2022/08/21 08:59:40;;;;;;;8.55;2.30;;;27.30;74.10;;;;;;5047558;28;20045;-88
2022/08/21 09:02:07;;;;;;;5.93;2.17;;;28.00;72.60;;;;;;5054317;28;20099;-88
2022/08/21 09:04:33;;;;;;;8.52;2.10;;;28.60;68.20;;;;;;5054234;28;20584;-86
2022/08/21 09:07:38;;;;;;;6.35;1.80;;;29.20;64.60;;;;;;5055762;28;20061;-86
2022/08/21 09:10:12;;;;;;;8.20;1.45;;;29.40;62.30;;;;;;5037048;28;20186;-86
2022/08/21 09:12:47;;;;;;;8.63;1.70;;;29.70;61.30;;;;;;5054709;28;20077;-92
2022/08/21 09:15:23;;;;;;;6.47;1.55;;;30.10;61.00;;;;;;5053570;28;20051;-86
2022/08/21 09:18:05;;;;;;;7.07;1.70;;;30.30;59.30;;;;;;5047038;28;20057;-87
2022/08/21 09:21:04;;;;;;;10.32;1.73;;;30.40;59.40;;;;;;5050210;28;20041;-87
2022/08/21 09:23:48;;;;;;;7.15;1.70;;;30.80;59.20;;;;;;5043841;28;20041;-88
2022/08/21 09:26:15;;;;;;;6.18;1.80;;;31.00;57.40;;;;;;5050932;28;20048;-90
2022/08/21 09:28:42;;;;;;;10.13;1.60;;;31.20;56.60;;;;;;5054129;28;20135;-88
2022/08/21 09:31:18;;;;;;;6.68;1.67;;;31.30;56.60;;;;;;5052949;28;20072;-87
2022/08/21 09:33:44;;;;;;;6.13;1.58;;;31.40;55.50;;;;;;5054181;28;20060;-87
2022/08/21 09:36:10;;;;;;;7.03;1.90;;;31.50;55.70;;;;;;5052431;28;20061;-87
2022/08/21 09:38:37;;;;;;;8.38;1.70;;;31.50;55.00;;;;;;5054296;28;20175;-86
2022/08/21 09:41:10;;;;;;;5.30;1.45;;;31.20;55.20;;;;;;5052694;28;20320;-88
2022/08/21 09:43:37;;;;;;;9.60;2.10;;;31.10;55.30;;;;;;5053909;28;20060;-88
2022/08/21 09:46:05;;;;;;;8.05;1.77;;;30.80;55.40;;;;;;5054349;28;20075;-90
2022/08/21 09:48:42;;;;;;;6.38;1.42;;;30.80;56.40;;;;;;5053059;28;20635;-89
2022/08/21 09:51:13;;;;;;;7.53;1.50;;;31.30;55.20;;;;;;5053831;28;20041;-86
2022/08/21 09:53:43;;;;;;;10.80;2.00;;;31.40;54.10;;;;;;5054143;28;20127;-86
2022/08/21 09:59:26;;;;;;;5.25;1.40;;;30.90;55.70;;;;;;5050257;28;20056;-88
2022/08/21 10:01:53;;;;;;;7.32;2.15;;;31.50;55.60;;;;;;5034371;28;20490;-90
2022/08/21 10:04:29;;;;;;;11.93;2.92;;;31.80;53.80;;;;;;5033845;28;20049;-87
2022/08/21 10:07:05;;;;;;;11.63;2.42;;;32.10;55.40;;;;;;5049920;28;20048;-94
2022/08/21 10:09:31;;;;;;;8.55;2.10;;;32.10;53.60;;;;;;5054242;28;20049;-86
2022/08/21 10:12:12;;;;;;;9.20;2.13;;;31.60;54.90;;;;;;5041616;28;20072;-88
2022/08/21 10:15:05;;;;;;;7.00;2.13;;;31.30;54.80;;;;;;5049128;28;20071;-87
2022/08/21 10:18:03;;;;;;;8.07;1.88;;;30.70;57.10;;;;;;5034473;28;20061;-90
2022/08/21 10:20:54;;;;;;;10.85;2.47;;;30.60;58.10;;;;;;5011824;28;20483;-88
2022/08/21 10:24:01;;;;;;;5.82;1.73;;;30.80;55.40;;;;;;5043240;28;20057;-83
2022/08/21 10:27:02;;;;;;;9.02;2.20;;;30.10;56.70;;;;;;5013304;28;20111;-87
2022/08/21 10:29:34;;;;;;;13.00;3.47;;;30.30;58.40;;;;;;5028137;28;20128;-88
2022/08/21 10:32:23;;;;;;;9.20;1.90;;;30.90;56.80;;;;;;5029319;28;20054;-88
2022/08/21 10:35:04;;;;;;;7.85;2.00;;;30.40;56.40;;;;;;4997044;28;20064;-84
2022/08/21 10:37:56;;;;;;;6.85;2.30;;;29.60;56.90;;;;;;5029146;28;20564;-84
2022/08/21 10:40:37;;;;;;;6.95;1.70;;;29.50;58.90;;;;;;5012520;28;20128;-86
2022/08/21 10:43:14;;;;;;;;;;;30.00;57.70;;;;;;5013538;28;20057;-86
2022/08/21 10:45:49;;;;;;;8.85;1.90;;;29.70;56.20;;;;;;5013182;28;19967;-85
2022/08/21 10:48:28;;;;;;;9.48;2.03;;;29.10;59.30;;;;;;5026024;28;20088;-83
2022/08/21 10:51:06;;;;;;;9.30;1.87;;;29.20;60.20;;;;;;5012698;28;20053;-83
2022/08/21 10:53:55;;;;;;;8.98;1.95;;;28.80;60.00;;;;;;5012044;28;20045;-89
2022/08/21 10:56:33;;;;;;;10.07;2.42;;;27.60;60.80;;;;;;5028095;28;20065;-84
2022/08/21 10:59:02;;;;;;;10.80;2.03;;;26.80;65.40;;;;;;5028997;28;20037;-85
2022/08/21 11:01:39;;;;;;;8.10;2.13;;;27.10;67.40;;;;;;5029493;28;20041;-84
2022/08/21 11:04:13;;;;;;;10.48;2.30;;;27.90;68.60;;;;;;5043088;28;20095;-88
2022/08/21 11:06:45;;;;;;;9.10;2.30;;;28.80;64.30;;;;;;5038432;28;20041;-84
2022/08/21 11:09:18;;;;;;;6.22;1.65;;;29.50;63.60;;;;;;5047773;28;20041;-87
2022/08/21 11:12:06;;;;;;;5.90;1.58;;;30.10;60.50;;;;;;5042501;28;20045;-83
2022/08/21 11:14:51;;;;;;;10.23;2.20;;;30.80;60.00;;;;;;5037498;28;20432;-83
2022/08/21 11:17:29;;;;;;;6.45;1.60;;;31.40;57.70;;;;;;5046052;28;20041;-83
2022/08/21 11:20:02;;;;;;;7.10;2.00;;;31.90;55.10;;;;;;5051375;28;20045;-83
2022/08/21 11:22:36;;;;;;;6.80;1.70;;;32.10;54.30;;;;;;5050544;28;20051;-83
2022/08/21 11:25:08;;;;;;;8.23;1.85;;;32.50;53.40;;;;;;5049765;28;20095;-82
2022/08/21 11:27:46;;;;;;;7.63;1.98;;;32.20;52.30;;;;;;5041825;28;20103;-86
2022/08/21 11:30:13;;;;;;;10.45;2.28;;;31.30;53.90;;;;;;5049955;28;20444;-88
2022/08/21 11:33:08;;;;;;;8.65;1.77;;;31.00;55.10;;;;;;5052961;28;20456;-83
2022/08/21 11:35:49;;;;;;;6.65;1.95;;;31.50;55.30;;;;;;5050301;28;20053;-81
2022/08/21 11:38:35;;;;;;;7.60;1.77;;;31.90;53.50;;;;;;5036154;28;20061;-85
2022/08/21 11:41:23;;;;;;;7.10;1.58;;;31.80;53.70;;;;;;5046909;28;20383;-86
2022/08/21 11:44:03;;;;;;;7.60;1.70;;;31.00;54.30;;;;;;5052294;28;20053;-82
2022/08/21 11:46:43;;;;;;;8.07;1.77;;;30.20;54.90;;;;;;5054751;28;20509;-81
2022/08/21 11:49:33;;;;;;;10.95;1.70;;;29.50;55.50;;;;;;5054441;28;20120;-83
2022/08/21 11:52:02;;;;;;;;;;;29.60;55.10;;;;;;5046204;28;20513;-84
2022/08/21 11:54:35;;;;;;;8.45;1.83;;;30.70;57.50;;;;;;5051022;28;20302;-82
2022/08/21 11:57:17;;;;;;;9.30;1.88;;;31.20;52.90;;;;;;5047008;28;20045;-81
2022/08/21 12:00:08;;;;;;;6.93;1.58;;;31.00;52.80;;;;;;5051748;28;20124;-81
2022/08/21 12:02:38;;;;;;;8.65;1.80;;;31.20;52.60;;;;;;5053049;28;20037;-87
2022/08/21 12:05:07;;;;;;;8.27;1.93;;;31.50;52.30;;;;;;5042662;28;20525;-84
2022/08/21 12:07:36;;;;;;;11.63;2.10;;;31.80;50.90;;;;;;5055248;28;20065;-83
2022/08/21 12:10:09;;;;;;;5.75;1.60;;;32.10;50.40;;;;;;5037489;28;20098;-84
2022/08/21 12:12:37;;;;;;;5.97;1.40;;;32.40;49.80;;;;;;5055348;28;20053;-84
2022/08/21 12:15:19;;;;;;;8.98;1.70;;;32.10;49.70;;;;;;5055621;28;20052;-85
2022/08/21 12:17:55;;;;;;;5.60;1.77;;;31.10;51.30;;;;;;5055458;28;20048;-85
2022/08/21 12:20:21;;;;;;;7.80;1.98;;;30.00;53.50;;;;;;5055315;28;20045;-85
2022/08/21 12:23:10;;;;;;;9.75;2.08;;;29.30;55.20;;;;;;5054610;28;20045;-87
2022/08/21 12:26:08;;;;;;;7.83;1.90;;;28.60;57.40;;;;;;5054459;28;20048;-85
2022/08/21 12:28:34;;;;;;;8.43;1.77;;;28.20;60.50;;;;;;4993289;28;20377;-85
2022/08/21 12:31:00;;;;;;;8.68;1.98;;;28.00;60.20;;;;;;4993843;28;20137;-85
2022/08/21 12:33:33;;;;;;;8.18;1.92;;;27.70;61.40;;;;;;4993756;28;20507;-85
2022/08/21 12:36:11;;;;;;;10.25;2.20;;;27.50;62.00;;;;;;4993965;28;20112;-83
2022/08/21 12:38:56;;;;;;;7.18;1.50;;;27.00;62.40;;;;;;4993290;28;20121;-84
2022/08/21 12:41:28;;;;;;;6.25;1.70;;;26.50;63.80;;;;;;4993657;28;20447;-83
2022/08/21 12:44:27;;;;;;;9.68;2.05;;;26.20;67.60;;;;;;4993400;28;20050;-90
2022/08/21 12:47:01;;;;;;;9.43;2.03;;;26.00;65.60;;;;;;4993308;28;20085;-83
2022/08/21 12:49:36;;;;;;;11.65;2.20;;;25.80;68.30;;;;;;4993910;28;20095;-84
2022/08/21 12:52:27;;;;;;;7.85;2.03;;;25.70;69.40;;;;;;4993277;28;20523;-87
2022/08/21 12:54:53;;;;;;;9.63;1.80;;;25.90;72.20;;;;;;4993358;28;20057;-83
2022/08/21 12:57:27;;;;;;;8.15;1.75;;;26.10;73.80;;;;;;4993077;28;20046;-85